sensor_id;sensor_type;location;lat;lon;timestamp;pressure;altitude;pressure_sealevel;temperature;humidity
39949;BME280;29070;48.102;-1.652;2023-05-23T00:02:56;101891.34;;;16.17;60.41
39949;BME280;29070;48.102;-1.652;2023-05-23T00:07:57;101885.66;;;16.14;60.69
39949;BME280;29070;48.102;-1.652;2023-05-23T00:12:57;101890.34;;;16.12;60.88
39949;BME280;29070;48.102;-1.652;2023-05-23T00:17:57;101883.59;;;16.09;60.98
39949;BME280;29070;48.102;-1.652;2023-05-23T00:22:59;101878.09;;;16.04;60.99
39949;BME280;29070;48.102;-1.652;2023-05-23T00:27:59;101872.81;;;15.97;61.37
39949;BME280;29070;48.102;-1.652;2023-05-23T00:33:00;101869.34;;;15.90;61.20
39949;BME280;29070;48.102;-1.652;2023-05-23T00:38:00;101876.25;;;15.85;61.39
39949;BME280;29070;48.102;-1.652;2023-05-23T00:43:01;101883.16;;;15.79;61.71
39949;BME280;29070;48.102;-1.652;2023-05-23T00:48:02;101883.13;;;15.72;61.79
39949;BME280;29070;48.102;-1.652;2023-05-23T00:53:03;101868.84;;;15.67;62.04
39949;BME280;29070;48.102;-1.652;2023-05-23T00:58:04;101869.25;;;15.63;62.24
39949;BME280;29070;48.102;-1.652;2023-05-23T01:03:04;101869.22;;;15.57;62.41
39949;BME280;29070;48.102;-1.652;2023-05-23T01:08:05;101874.50;;;15.50;62.65
39949;BME280;29070;48.102;-1.652;2023-05-23T01:13:12;101872.88;;;15.49;62.38
39949;BME280;29070;48.102;-1.652;2023-05-23T01:18:16;101863.09;;;15.43;62.82
39949;BME280;29070;48.102;-1.652;2023-05-23T01:23:29;101866.16;;;15.40;63.11
39949;BME280;29070;48.102;-1.652;2023-05-23T01:28:43;101873.25;;;15.33;63.54
39949;BME280;29070;48.102;-1.652;2023-05-23T01:33:45;101867.13;;;15.25;63.30
39949;BME280;29070;48.102;-1.652;2023-05-23T01:38:45;101869.53;;;15.20;63.41
39949;BME280;29070;48.102;-1.652;2023-05-23T01:43:46;101867.66;;;15.14;63.65
39949;BME280;29070;48.102;-1.652;2023-05-23T01:48:47;101871.09;;;15.08;63.58
39949;BME280;29070;48.102;-1.652;2023-05-23T01:53:50;101874.72;;;15.00;63.90
39949;BME280;29070;48.102;-1.652;2023-05-23T01:58:51;101875.50;;;14.94;64.09
39949;BME280;29070;48.102;-1.652;2023-05-23T02:03:51;101874.06;;;14.92;64.47
39949;BME280;29070;48.102;-1.652;2023-05-23T02:08:52;101867.75;;;14.93;64.50
39949;BME280;29070;48.102;-1.652;2023-05-23T02:13:52;101862.44;;;14.86;64.50
39949;BME280;29070;48.102;-1.652;2023-05-23T02:18:52;101853.03;;;14.77;64.75
39949;BME280;29070;48.102;-1.652;2023-05-23T02:23:55;101865.19;;;14.71;64.91
39949;BME280;29070;48.102;-1.652;2023-05-23T02:28:55;101868.84;;;14.70;65.22
39949;BME280;29070;48.102;-1.652;2023-05-23T02:33:56;101866.41;;;14.68;65.49
39949;BME280;29070;48.102;-1.652;2023-05-23T02:38:56;101873.50;;;14.68;65.52
39949;BME280;29070;48.102;-1.652;2023-05-23T02:43:57;101859.28;;;14.69;65.90
39949;BME280;29070;48.102;-1.652;2023-05-23T02:48:57;101868.66;;;14.72;65.76
39949;BME280;29070;48.102;-1.652;2023-05-23T02:53:58;101861.38;;;14.74;65.91
39949;BME280;29070;48.102;-1.652;2023-05-23T02:58:58;101863.00;;;14.75;66.23
39949;BME280;29070;48.102;-1.652;2023-05-23T03:03:59;101872.75;;;14.74;66.17
39949;BME280;29070;48.102;-1.652;2023-05-23T03:09:00;101868.28;;;14.75;66.22
39949;BME280;29070;48.102;-1.652;2023-05-23T03:14:00;101867.22;;;14.69;66.28
39949;BME280;29070;48.102;-1.652;2023-05-23T03:19:01;101878.16;;;14.66;66.40
39949;BME280;29070;48.102;-1.652;2023-05-23T03:24:01;101876.16;;;14.68;66.64
39949;BME280;29070;48.102;-1.652;2023-05-23T03:29:01;101872.69;;;14.67;66.75
39949;BME280;29070;48.102;-1.652;2023-05-23T03:34:02;101876.56;;;14.72;66.80
39949;BME280;29070;48.102;-1.652;2023-05-23T03:39:04;101872.50;;;14.69;67.15
39949;BME280;29070;48.102;-1.652;2023-05-23T03:44:05;101865.78;;;14.66;66.91
39949;BME280;29070;48.102;-1.652;2023-05-23T03:49:05;101856.78;;;14.61;66.77
39949;BME280;29070;48.102;-1.652;2023-05-23T03:54:05;101859.84;;;14.58;67.23
39949;BME280;29070;48.102;-1.652;2023-05-23T03:59:06;101860.19;;;14.55;67.12
39949;BME280;29070;48.102;-1.652;2023-05-23T04:04:06;101861.38;;;14.52;67.40
39949;BME280;29070;48.102;-1.652;2023-05-23T04:09:06;101861.38;;;14.52;67.60
39949;BME280;29070;48.102;-1.652;2023-05-23T04:14:07;101863.81;;;14.54;67.66
39949;BME280;29070;48.102;-1.652;2023-05-23T04:19:07;101859.16;;;14.56;67.82
39949;BME280;29070;48.102;-1.652;2023-05-23T04:24:07;101862.50;;;14.58;68.20
39949;BME280;29070;48.102;-1.652;2023-05-23T04:29:08;101849.72;;;14.61;68.08
39949;BME280;29070;48.102;-1.652;2023-05-23T04:34:11;101863.97;;;14.67;68.21
39949;BME280;29070;48.102;-1.652;2023-05-23T04:39:11;101868.66;;;14.72;68.15
39949;BME280;29070;48.102;-1.652;2023-05-23T04:44:12;101871.72;;;14.75;68.02
39949;BME280;29070;48.102;-1.652;2023-05-23T04:49:14;101878.28;;;14.79;67.96
39949;BME280;29070;48.102;-1.652;2023-05-23T04:54:14;101882.56;;;14.87;68.20
39949;BME280;29070;48.102;-1.652;2023-05-23T04:59:14;101882.00;;;14.92;67.88
39949;BME280;29070;48.102;-1.652;2023-05-23T05:04:15;101884.25;;;14.95;67.74
39949;BME280;29070;48.102;-1.652;2023-05-23T05:09:15;101892.59;;;14.98;67.50
39949;BME280;29070;48.102;-1.652;2023-05-23T05:14:15;101898.31;;;15.02;67.31
39949;BME280;29070;48.102;-1.652;2023-05-23T05:19:16;101887.72;;;15.02;67.23
39949;BME280;29070;48.102;-1.652;2023-05-23T05:24:16;101899.16;;;15.09;67.20
39949;BME280;29070;48.102;-1.652;2023-05-23T05:29:16;101896.75;;;15.14;67.24
39949;BME280;29070;48.102;-1.652;2023-05-23T05:34:17;101895.97;;;15.20;66.96
39949;BME280;29070;48.102;-1.652;2023-05-23T05:39:17;101884.19;;;15.23;66.85
39949;BME280;29070;48.102;-1.652;2023-05-23T05:44:18;101902.13;;;15.28;66.44
39949;BME280;29070;48.102;-1.652;2023-05-23T05:49:18;101895.41;;;15.32;66.46
39949;BME280;29070;48.102;-1.652;2023-05-23T05:54:18;101899.91;;;15.38;66.41
39949;BME280;29070;48.102;-1.652;2023-05-23T05:59:19;101894.44;;;15.46;66.27
39949;BME280;29070;48.102;-1.652;2023-05-23T06:04:19;101906.66;;;15.54;66.04
39949;BME280;29070;48.102;-1.652;2023-05-23T06:09:19;101918.28;;;15.59;65.97
39949;BME280;29070;48.102;-1.652;2023-05-23T06:14:20;101906.91;;;15.59;65.97
39949;BME280;29070;48.102;-1.652;2023-05-23T06:19:20;101903.06;;;15.61;65.76
39949;BME280;29070;48.102;-1.652;2023-05-23T06:24:20;101903.66;;;15.70;65.90
39949;BME280;29070;48.102;-1.652;2023-05-23T06:29:21;101907.41;;;15.76;65.65
39949;BME280;29070;48.102;-1.652;2023-05-23T06:34:21;101913.72;;;15.81;65.65
39949;BME280;29070;48.102;-1.652;2023-05-23T06:39:22;101918.63;;;15.91;65.58
39949;BME280;29070;48.102;-1.652;2023-05-23T06:44:22;101918.22;;;15.94;65.20
39949;BME280;29070;48.102;-1.652;2023-05-23T06:49:23;101919.03;;;15.95;65.05
39949;BME280;29070;48.102;-1.652;2023-05-23T06:54:23;101923.53;;;16.01;64.98
39949;BME280;29070;48.102;-1.652;2023-05-23T06:59:24;101930.47;;;16.09;64.99
39949;BME280;29070;48.102;-1.652;2023-05-23T07:04:25;101933.31;;;16.07;64.63
39949;BME280;29070;48.102;-1.652;2023-05-23T07:09:26;101938.63;;;16.14;64.62
39949;BME280;29070;48.102;-1.652;2023-05-23T07:14:26;101946.38;;;16.29;64.87
39949;BME280;29070;48.102;-1.652;2023-05-23T07:19:26;101952.09;;;16.39;64.47
39949;BME280;29070;48.102;-1.652;2023-05-23T07:24:27;101950.88;;;16.48;64.32
39949;BME280;29070;48.102;-1.652;2023-05-23T07:29:27;101952.31;;;16.51;64.10
39949;BME280;29070;48.102;-1.652;2023-05-23T07:34:27;101948.63;;;16.65;63.87
39949;BME280;29070;48.102;-1.652;2023-05-23T07:39:28;101950.47;;;16.78;63.49
39949;BME280;29070;48.102;-1.652;2023-05-23T07:44:28;101948.38;;;17.13;63.62
39949;BME280;29070;48.102;-1.652;2023-05-23T07:49:29;101955.19;;;17.55;63.15
39949;BME280;29070;48.102;-1.652;2023-05-23T07:54:29;101960.34;;;17.88;62.71
39949;BME280;29070;48.102;-1.652;2023-05-23T07:59:30;101962.97;;;17.95;62.09
39949;BME280;29070;48.102;-1.652;2023-05-23T08:04:30;101971.59;;;18.15;61.88
39949;BME280;29070;48.102;-1.652;2023-05-23T08:09:31;101958.28;;;18.47;61.78
39949;BME280;29070;48.102;-1.652;2023-05-23T08:14:31;101962.31;;;18.81;61.45
39949;BME280;29070;48.102;-1.652;2023-05-23T08:19:32;101951.41;;;19.08;60.98
39949;BME280;29070;48.102;-1.652;2023-05-23T08:24:32;101972.78;;;19.20;59.86
39949;BME280;29070;48.102;-1.652;2023-05-23T08:29:33;101976.47;;;19.19;59.85
39949;BME280;29070;48.102;-1.652;2023-05-23T08:34:34;101977.94;;;19.33;59.63
39949;BME280;29070;48.102;-1.652;2023-05-23T08:39:34;101985.13;;;19.33;59.50
39949;BME280;29070;48.102;-1.652;2023-05-23T08:44:35;101986.22;;;19.43;58.92
39949;BME280;29070;48.102;-1.652;2023-05-23T08:49:36;101976.63;;;19.42;58.87
39949;BME280;29070;48.102;-1.652;2023-05-23T08:54:37;101988.09;;;19.43;58.53
39949;BME280;29070;48.102;-1.652;2023-05-23T08:59:38;101992.16;;;19.27;58.08
39949;BME280;29070;48.102;-1.652;2023-05-23T09:04:38;101993.47;;;18.99;57.88
39949;BME280;29070;48.102;-1.652;2023-05-23T09:09:39;101998.47;;;18.89;57.82
39949;BME280;29070;48.102;-1.652;2023-05-23T09:14:39;101997.00;;;18.93;57.86
39949;BME280;29070;48.102;-1.652;2023-05-23T09:19:40;101995.47;;;19.04;58.06
39949;BME280;29070;48.102;-1.652;2023-05-23T09:24:42;101990.97;;;19.41;57.75
39949;BME280;29070;48.102;-1.652;2023-05-23T09:29:43;101998.81;;;19.55;57.44
39949;BME280;29070;48.102;-1.652;2023-05-23T09:34:58;101992.81;;;19.59;57.20
39949;BME280;29070;48.102;-1.652;2023-05-23T09:40:00;102013.59;;;19.51;57.00
39949;BME280;29070;48.102;-1.652;2023-05-23T09:45:01;102015.69;;;19.30;56.83
39949;BME280;29070;48.102;-1.652;2023-05-23T09:50:02;102011.53;;;19.34;57.55
39949;BME280;29070;48.102;-1.652;2023-05-23T09:55:03;102019.50;;;19.34;57.50
39949;BME280;29070;48.102;-1.652;2023-05-23T10:00:04;102006.22;;;19.34;57.52
39949;BME280;29070;48.102;-1.652;2023-05-23T10:05:21;102016.91;;;19.28;57.36
39949;BME280;29070;48.102;-1.652;2023-05-23T10:10:30;102015.09;;;19.28;57.34
39949;BME280;29070;48.102;-1.652;2023-05-23T10:15:37;102023.66;;;19.30;57.49
39949;BME280;29070;48.102;-1.652;2023-05-23T10:20:41;102013.97;;;19.36;57.43
39949;BME280;29070;48.102;-1.652;2023-05-23T10:25:43;102018.47;;;19.17;56.84
39949;BME280;29070;48.102;-1.652;2023-05-23T10:30:44;102016.41;;;19.19;57.39
39949;BME280;29070;48.102;-1.652;2023-05-23T10:36:50;102023.94;;;19.22;56.98
39949;BME280;29070;48.102;-1.652;2023-05-23T10:41:24;102028.25;;;19.23;56.78
39949;BME280;29070;48.102;-1.652;2023-05-23T10:46:59;102017.47;;;19.55;56.42
39949;BME280;29070;48.102;-1.652;2023-05-23T10:52:03;102011.38;;;19.85;56.19
39949;BME280;29070;48.102;-1.652;2023-05-23T10:57:04;102016.25;;;19.88;55.64
39949;BME280;29070;48.102;-1.652;2023-05-23T11:02:12;102022.16;;;19.90;55.57
39949;BME280;29070;48.102;-1.652;2023-05-23T11:07:43;102010.00;;;19.94;55.34
39949;BME280;29070;48.102;-1.652;2023-05-23T11:12:43;102027.28;;;19.91;55.31
39949;BME280;29070;48.102;-1.652;2023-05-23T11:17:56;102015.81;;;19.91;54.76
39949;BME280;29070;48.102;-1.652;2023-05-23T11:23:01;102006.22;;;20.02;54.83
39949;BME280;29070;48.102;-1.652;2023-05-23T11:28:04;102004.78;;;20.17;54.97
39949;BME280;29070;48.102;-1.652;2023-05-23T11:33:12;101998.34;;;20.61;54.52
39949;BME280;29070;48.102;-1.652;2023-05-23T11:38:14;101987.69;;;21.08;54.13
39949;BME280;29070;48.102;-1.652;2023-05-23T11:43:16;101987.84;;;21.42;53.41
39949;BME280;29070;48.102;-1.652;2023-05-23T11:48:17;101984.72;;;21.45;53.10
39949;BME280;29070;48.102;-1.652;2023-05-23T11:53:18;101986.22;;;21.41;52.35
39949;BME280;29070;48.102;-1.652;2023-05-23T11:58:21;101977.53;;;21.45;52.85
39949;BME280;29070;48.102;-1.652;2023-05-23T12:03:25;101978.22;;;21.52;52.20
39949;BME280;29070;48.102;-1.652;2023-05-23T12:08:25;101982.53;;;21.54;52.18
39949;BME280;29070;48.102;-1.652;2023-05-23T12:13:29;101984.47;;;21.58;51.53
39949;BME280;29070;48.102;-1.652;2023-05-23T12:18:31;101982.78;;;21.69;51.88
39949;BME280;29070;48.102;-1.652;2023-05-23T12:23:31;101971.50;;;21.79;51.05
39949;BME280;29070;48.102;-1.652;2023-05-23T12:28:37;101976.34;;;21.82;50.76
39949;BME280;29070;48.102;-1.652;2023-05-23T12:33:41;101976.75;;;21.74;50.81
39949;BME280;29070;48.102;-1.652;2023-05-23T12:38:45;101976.06;;;21.95;51.09
39949;BME280;29070;48.102;-1.652;2023-05-23T12:43:53;101969.44;;;22.15;49.37
39949;BME280;29070;48.102;-1.652;2023-05-23T12:48:53;101964.41;;;22.01;49.78
39949;BME280;29070;48.102;-1.652;2023-05-23T12:53:54;101979.06;;;21.99;49.58
39949;BME280;29070;48.102;-1.652;2023-05-23T12:58:54;101973.56;;;22.22;49.24
39949;BME280;29070;48.102;-1.652;2023-05-23T13:03:54;101965.41;;;22.63;49.03
39949;BME280;29070;48.102;-1.652;2023-05-23T13:08:55;101965.56;;;22.73;48.09
39949;BME280;29070;48.102;-1.652;2023-05-23T13:13:56;101961.59;;;22.98;48.10
39949;BME280;29070;48.102;-1.652;2023-05-23T13:18:57;101961.44;;;23.27;47.45
39949;BME280;29070;48.102;-1.652;2023-05-23T13:23:57;101947.56;;;23.30;46.66
39949;BME280;29070;48.102;-1.652;2023-05-23T13:28:57;101942.84;;;23.15;46.70
39949;BME280;29070;48.102;-1.652;2023-05-23T13:33:57;101940.59;;;23.29;46.57
39949;BME280;29070;48.102;-1.652;2023-05-23T13:38:58;101943.88;;;23.85;45.99
39949;BME280;29070;48.102;-1.652;2023-05-23T13:43:58;101932.09;;;24.19;45.43
39949;BME280;29070;48.102;-1.652;2023-05-23T13:48:59;101928.03;;;24.16;44.08
39949;BME280;29070;48.102;-1.652;2023-05-23T13:53:59;101927.22;;;24.15;44.43
39949;BME280;29070;48.102;-1.652;2023-05-23T13:59:00;101904.81;;;24.37;43.69
39949;BME280;29070;48.102;-1.652;2023-05-23T14:04:00;101908.53;;;24.68;43.55
39949;BME280;29070;48.102;-1.652;2023-05-23T14:09:01;101889.28;;;24.87;42.97
39949;BME280;29070;48.102;-1.652;2023-05-23T14:14:01;101904.31;;;24.93;41.97
39949;BME280;29070;48.102;-1.652;2023-05-23T14:19:01;101886.84;;;24.85;41.56
39949;BME280;29070;48.102;-1.652;2023-05-23T14:24:02;101882.91;;;24.50;41.05
39949;BME280;29070;48.102;-1.652;2023-05-23T14:29:02;101887.66;;;24.86;40.99
39949;BME280;29070;48.102;-1.652;2023-05-23T14:34:03;101877.75;;;24.97;40.62
39949;BME280;29070;48.102;-1.652;2023-05-23T14:39:03;101873.03;;;24.56;39.87
39949;BME280;29070;48.102;-1.652;2023-05-23T14:44:04;101876.56;;;24.62;40.20
39949;BME280;29070;48.102;-1.652;2023-05-23T14:49:05;101867.16;;;24.64;39.45
39949;BME280;29070;48.102;-1.652;2023-05-23T14:54:06;101867.50;;;24.83;39.17
39949;BME280;29070;48.102;-1.652;2023-05-23T14:59:06;101860.28;;;24.89;39.34
39949;BME280;29070;48.102;-1.652;2023-05-23T15:04:07;101859.78;;;25.02;38.75
39949;BME280;29070;48.102;-1.652;2023-05-23T15:09:07;101856.78;;;24.88;38.52
39949;BME280;29070;48.102;-1.652;2023-05-23T15:14:09;101849.06;;;25.02;38.44
39949;BME280;29070;48.102;-1.652;2023-05-23T15:19:09;101846.91;;;25.15;38.35
39949;BME280;29070;48.102;-1.652;2023-05-23T15:24:10;101846.41;;;25.23;38.42
39949;BME280;29070;48.102;-1.652;2023-05-23T15:29:10;101849.16;;;25.43;38.07
39949;BME280;29070;48.102;-1.652;2023-05-23T15:34:12;101844.81;;;25.27;38.04
39949;BME280;29070;48.102;-1.652;2023-05-23T15:39:12;101844.78;;;25.11;37.84
39949;BME280;29070;48.102;-1.652;2023-05-23T15:44:13;101842.00;;;24.91;37.61
39949;BME280;29070;48.102;-1.652;2023-05-23T15:49:18;101838.25;;;24.87;37.56
39949;BME280;29070;48.102;-1.652;2023-05-23T15:54:18;101834.50;;;24.93;37.57
39949;BME280;29070;48.102;-1.652;2023-05-23T15:59:19;101843.41;;;24.99;37.31
39949;BME280;29070;48.102;-1.652;2023-05-23T16:04:19;101839.88;;;24.93;37.25
39949;BME280;29070;48.102;-1.652;2023-05-23T16:09:19;101845.22;;;24.83;37.09
39949;BME280;29070;48.102;-1.652;2023-05-23T16:14:20;101838.69;;;24.58;37.07
39949;BME280;29070;48.102;-1.652;2023-05-23T16:19:21;101833.50;;;24.46;37.25
39949;BME280;29070;48.102;-1.652;2023-05-23T16:24:21;101829.06;;;24.20;37.01
39949;BME280;29070;48.102;-1.652;2023-05-23T16:29:22;101832.28;;;24.16;37.45
39949;BME280;29070;48.102;-1.652;2023-05-23T16:34:22;101835.66;;;24.02;37.82
39949;BME280;29070;48.102;-1.652;2023-05-23T16:39:22;101837.63;;;23.79;37.81
39949;BME280;29070;48.102;-1.652;2023-05-23T16:44:23;101843.41;;;23.66;38.17
39949;BME280;29070;48.102;-1.652;2023-05-23T16:49:23;101848.16;;;23.58;38.59
39949;BME280;29070;48.102;-1.652;2023-05-23T16:54:23;101851.31;;;23.50;38.59
39949;BME280;29070;48.102;-1.652;2023-05-23T16:59:24;101849.94;;;23.20;38.39
39949;BME280;29070;48.102;-1.652;2023-05-23T17:04:24;101853.66;;;23.14;39.07
39949;BME280;29070;48.102;-1.652;2023-05-23T17:09:24;101852.81;;;22.92;38.84
39949;BME280;29070;48.102;-1.652;2023-05-23T17:14:25;101850.16;;;22.70;39.07
39949;BME280;29070;48.102;-1.652;2023-05-23T17:19:25;101852.25;;;22.45;39.11
39949;BME280;29070;48.102;-1.652;2023-05-23T17:24:26;101847.25;;;22.15;39.05
39949;BME280;29070;48.102;-1.652;2023-05-23T17:29:26;101854.13;;;21.94;39.27
39949;BME280;29070;48.102;-1.652;2023-05-23T17:34:26;101860.19;;;21.73;39.54
39949;BME280;29070;48.102;-1.652;2023-05-23T17:39:27;101863.56;;;21.51;39.49
39949;BME280;29070;48.102;-1.652;2023-05-23T17:44:27;101860.09;;;21.22;39.62
39949;BME280;29070;48.102;-1.652;2023-05-23T17:49:27;101865.84;;;21.02;39.91
39949;BME280;29070;48.102;-1.652;2023-05-23T17:54:28;101863.31;;;20.83;40.02
39949;BME280;29070;48.102;-1.652;2023-05-23T17:59:28;101870.44;;;20.54;40.49
39949;BME280;29070;48.102;-1.652;2023-05-23T18:04:29;101871.69;;;20.28;40.85
39949;BME280;29070;48.102;-1.652;2023-05-23T18:09:29;101886.06;;;20.03;40.83
39949;BME280;29070;48.102;-1.652;2023-05-23T18:14:30;101883.69;;;19.83;41.27
39949;BME280;29070;48.102;-1.652;2023-05-23T18:19:30;101894.91;;;19.73;41.78
39949;BME280;29070;48.102;-1.652;2023-05-23T18:24:30;101901.59;;;19.46;42.03
39949;BME280;29070;48.102;-1.652;2023-05-23T18:29:31;101909.63;;;19.27;42.38
39949;BME280;29070;48.102;-1.652;2023-05-23T18:34:31;101907.03;;;19.20;42.74
39949;BME280;29070;48.102;-1.652;2023-05-23T18:39:31;101915.63;;;19.04;42.84
39949;BME280;29070;48.102;-1.652;2023-05-23T18:44:32;101925.53;;;18.97;43.37
39949;BME280;29070;48.102;-1.652;2023-05-23T18:49:32;101940.00;;;18.82;43.48
39949;BME280;29070;48.102;-1.652;2023-05-23T18:54:33;101953.19;;;18.71;43.79
39949;BME280;29070;48.102;-1.652;2023-05-23T18:59:33;101941.91;;;18.50;44.09
39949;BME280;29070;48.102;-1.652;2023-05-23T19:04:33;101957.97;;;18.37;44.17
39949;BME280;29070;48.102;-1.652;2023-05-23T19:09:34;101958.50;;;18.20;44.50
39949;BME280;29070;48.102;-1.652;2023-05-23T19:14:34;101966.78;;;18.05;45.10
39949;BME280;29070;48.102;-1.652;2023-05-23T19:19:34;101955.81;;;17.95;45.13
39949;BME280;29070;48.102;-1.652;2023-05-23T19:24:36;101967.88;;;17.84;45.52
39949;BME280;29070;48.102;-1.652;2023-05-23T19:29:37;101966.31;;;17.70;45.56
39949;BME280;29070;48.102;-1.652;2023-05-23T19:34:37;101969.88;;;17.50;45.98
39949;BME280;29070;48.102;-1.652;2023-05-23T19:39:37;101970.16;;;17.36;46.44
39949;BME280;29070;48.102;-1.652;2023-05-23T19:44:38;101968.97;;;17.25;46.78
39949;BME280;29070;48.102;-1.652;2023-05-23T19:49:38;101970.41;;;17.14;47.14
39949;BME280;29070;48.102;-1.652;2023-05-23T19:54:38;101985.94;;;16.97;47.44
39949;BME280;29070;48.102;-1.652;2023-05-23T19:59:40;101994.91;;;16.83;47.87
39949;BME280;29070;48.102;-1.652;2023-05-23T20:04:41;101998.19;;;16.71;48.40
39949;BME280;29070;48.102;-1.652;2023-05-23T20:09:42;102020.41;;;16.57;48.65
39949;BME280;29070;48.102;-1.652;2023-05-23T20:14:42;102030.56;;;16.47;48.88
39949;BME280;29070;48.102;-1.652;2023-05-23T20:19:42;102041.97;;;16.34;49.36
39949;BME280;29070;48.102;-1.652;2023-05-23T20:24:43;102043.56;;;16.22;49.71
39949;BME280;29070;48.102;-1.652;2023-05-23T20:29:43;102046.63;;;16.12;49.88
39949;BME280;29070;48.102;-1.652;2023-05-23T20:34:43;102051.84;;;15.98;50.33
39949;BME280;29070;48.102;-1.652;2023-05-23T20:39:44;102059.16;;;15.90;50.95
39949;BME280;29070;48.102;-1.652;2023-05-23T20:44:47;102059.28;;;15.75;51.25
39949;BME280;29070;48.102;-1.652;2023-05-23T20:49:47;102064.28;;;15.63;51.55
39949;BME280;29070;48.102;-1.652;2023-05-23T20:54:48;102061.81;;;15.55;51.79
39949;BME280;29070;48.102;-1.652;2023-05-23T20:59:48;102067.06;;;15.48;52.03
39949;BME280;29070;48.102;-1.652;2023-05-23T21:04:49;102073.28;;;15.34;52.45
39949;BME280;29070;48.102;-1.652;2023-05-23T21:09:49;102064.47;;;15.27;52.77
39949;BME280;29070;48.102;-1.652;2023-05-23T21:14:50;102070.13;;;15.23;52.89
39949;BME280;29070;48.102;-1.652;2023-05-23T21:19:50;102073.31;;;15.12;53.24
39949;BME280;29070;48.102;-1.652;2023-05-23T21:24:50;102083.41;;;15.02;53.57
39949;BME280;29070;48.102;-1.652;2023-05-23T21:29:51;102091.28;;;14.95;53.92
39949;BME280;29070;48.102;-1.652;2023-05-23T21:34:51;102094.69;;;14.89;53.74
39949;BME280;29070;48.102;-1.652;2023-05-23T21:39:52;102096.25;;;14.83;54.29
39949;BME280;29070;48.102;-1.652;2023-05-23T21:44:52;102099.41;;;14.72;54.43
39949;BME280;29070;48.102;-1.652;2023-05-23T21:49:52;102098.91;;;14.62;54.71
39949;BME280;29070;48.102;-1.652;2023-05-23T21:54:53;102102.25;;;14.56;54.98
39949;BME280;29070;48.102;-1.652;2023-05-23T21:59:53;102105.03;;;14.47;55.36
39949;BME280;29070;48.102;-1.652;2023-05-23T22:04:53;102111.59;;;14.37;55.18
39949;BME280;29070;48.102;-1.652;2023-05-23T22:09:54;102119.19;;;14.25;55.63
39949;BME280;29070;48.102;-1.652;2023-05-23T22:14:55;102123.56;;;14.18;55.78
39949;BME280;29070;48.102;-1.652;2023-05-23T22:19:56;102122.94;;;14.16;56.05
39949;BME280;29070;48.102;-1.652;2023-05-23T22:24:57;102114.09;;;14.08;56.45
39949;BME280;29070;48.102;-1.652;2023-05-23T22:29:57;102111.19;;;14.03;56.22
39949;BME280;29070;48.102;-1.652;2023-05-23T22:34:58;102117.22;;;13.97;56.51
39949;BME280;29070;48.102;-1.652;2023-05-23T22:39:58;102115.91;;;13.93;56.70
39949;BME280;29070;48.102;-1.652;2023-05-23T22:44:58;102105.31;;;13.86;56.89
39949;BME280;29070;48.102;-1.652;2023-05-23T22:49:59;102115.31;;;13.76;56.94
39949;BME280;29070;48.102;-1.652;2023-05-23T22:54:59;102110.94;;;13.68;57.01
39949;BME280;29070;48.102;-1.652;2023-05-23T23:00:00;102110.94;;;13.68;57.20
39949;BME280;29070;48.102;-1.652;2023-05-23T23:05:00;102104.75;;;13.61;57.34
39949;BME280;29070;48.102;-1.652;2023-05-23T23:10:00;102109.09;;;13.54;57.62
39949;BME280;29070;48.102;-1.652;2023-05-23T23:15:01;102114.72;;;13.51;57.64
39949;BME280;29070;48.102;-1.652;2023-05-23T23:20:01;102114.34;;;13.39;57.79
39949;BME280;29070;48.102;-1.652;2023-05-23T23:25:04;102108.78;;;13.34;57.97
39949;BME280;29070;48.102;-1.652;2023-05-23T23:30:05;102108.50;;;13.29;58.13
39949;BME280;29070;48.102;-1.652;2023-05-23T23:35:06;102108.03;;;13.25;58.26
39949;BME280;29070;48.102;-1.652;2023-05-23T23:40:07;102120.91;;;13.20;58.41
39949;BME280;29070;48.102;-1.652;2023-05-23T23:45:08;102116.97;;;13.16;58.56
39949;BME280;29070;48.102;-1.652;2023-05-23T23:50:08;102130.88;;;13.10;58.41
39949;BME280;29070;48.102;-1.652;2023-05-23T23:55:09;102136.50;;;13.07;58.57
